createdAt,value
2018-03-08T00:01:11.675Z,85.71
2018-03-08T00:03:39.192Z,86.87
2018-03-08T00:06:06.705Z,86.51
2018-03-08T00:08:34.222Z,86.23
2018-03-08T00:11:01.750Z,85.47
2018-03-08T00:13:29.275Z,85.15
2018-03-08T00:15:56.800Z,85.12
2018-03-08T00:18:24.359Z,85.26
2018-03-08T00:20:51.875Z,85.40
2018-03-08T00:23:19.398Z,86.18
2018-03-08T00:25:46.910Z,85.74
2018-03-08T00:28:14.424Z,85.77
2018-03-08T00:30:41.955Z,85.91
2018-03-08T00:33:09.483Z,86.07
2018-03-08T00:35:37.031Z,85.54
2018-03-08T00:38:04.539Z,85.80
2018-03-08T00:40:32.059Z,86.56
2018-03-08T00:42:59.578Z,86.25
2018-03-08T00:45:27.098Z,86.20
2018-03-08T00:47:54.634Z,86.60
2018-03-08T00:50:22.158Z,86.82
2018-03-08T00:52:49.680Z,86.64
2018-03-08T00:55:17.197Z,86.36
2018-03-08T00:57:44.718Z,85.98
2018-03-08T01:00:12.257Z,86.20
2018-03-08T01:02:39.775Z,87.04
2018-03-08T01:05:07.314Z,87.42
2018-03-08T01:07:34.843Z,86.03
2018-03-08T01:10:02.373Z,86.53
2018-03-08T01:12:29.894Z,87.50
2018-03-08T01:14:57.421Z,86.35
2018-03-08T01:17:24.936Z,85.94
2018-03-08T01:19:52.488Z,85.79
2018-03-08T01:22:20.004Z,85.82
2018-03-08T01:24:47.528Z,85.80
2018-03-08T01:27:15.075Z,85.93
2018-03-08T01:29:42.602Z,86.30
2018-03-08T01:32:10.121Z,85.76
2018-03-08T01:34:37.637Z,86.02
2018-03-08T01:37:05.154Z,85.49
2018-03-08T01:39:32.671Z,85.68
2018-03-08T01:42:00.193Z,86.00
2018-03-08T01:44:27.718Z,86.14
2018-03-08T01:46:55.238Z,86.06
2018-03-08T01:49:22.750Z,85.47
2018-03-08T01:52:02.318Z,87.43
2018-03-08T01:54:29.838Z,87.35
2018-03-08T01:56:57.378Z,88.42
2018-03-08T01:59:24.910Z,87.33
2018-03-08T02:01:52.430Z,86.63
2018-03-08T02:04:19.952Z,86.06
2018-03-08T02:06:47.474Z,85.75
2018-03-08T02:09:14.993Z,86.13
2018-03-08T02:11:42.504Z,85.95
2018-03-08T02:14:10.029Z,85.84
2018-03-08T02:16:37.541Z,85.88
2018-03-08T02:19:05.049Z,85.86
2018-03-08T02:21:32.566Z,85.66
2018-03-08T02:24:00.086Z,85.69
2018-03-08T02:26:27.621Z,85.41
2018-03-08T02:28:55.137Z,85.75
2018-03-08T02:31:22.655Z,85.67
2018-03-08T02:33:50.175Z,85.35
2018-03-08T02:36:17.689Z,85.55
2018-03-08T02:38:45.211Z,85.79
2018-03-08T02:41:12.729Z,85.89
2018-03-08T02:43:40.245Z,85.23
2018-03-08T02:46:07.759Z,85.65
2018-03-08T02:48:35.276Z,85.59
2018-03-08T02:51:02.787Z,85.98
2018-03-08T02:53:30.330Z,85.91
2018-03-08T02:55:57.854Z,86.43
2018-03-08T02:58:25.405Z,85.56
2018-03-08T03:00:52.922Z,85.95
2018-03-08T03:03:20.446Z,86.02
2018-03-08T03:05:47.970Z,85.74
2018-03-08T03:08:15.508Z,86.30
2018-03-08T03:10:43.027Z,85.53
2018-03-08T03:13:10.542Z,84.88
2018-03-08T03:15:38.064Z,85.07
2018-03-08T03:18:05.593Z,85.28
2018-03-08T03:20:33.115Z,84.78
2018-03-08T03:23:00.639Z,84.78
2018-03-08T03:25:28.161Z,84.54
2018-03-08T03:27:55.682Z,85.68
2018-03-08T03:30:23.199Z,85.19
2018-03-08T03:32:50.724Z,84.63
2018-03-08T03:35:18.242Z,84.62
2018-03-08T03:37:45.789Z,84.65
2018-03-08T03:40:13.309Z,84.53
2018-03-08T03:42:40.820Z,84.54
2018-03-08T03:45:08.339Z,84.86
2018-03-08T03:47:35.868Z,84.84
2018-03-08T03:50:03.404Z,84.81
2018-03-08T03:52:30.925Z,84.74
2018-03-08T03:54:58.437Z,85.45
2018-03-08T03:57:25.963Z,84.69
2018-03-08T03:59:53.500Z,84.27
2018-03-08T04:02:21.027Z,84.42
2018-03-08T04:04:48.555Z,84.54
2018-03-08T04:07:16.079Z,84.47
2018-03-08T04:09:43.602Z,84.20
2018-03-08T04:12:11.163Z,85.25
2018-03-08T04:14:38.684Z,84.62
2018-03-08T04:17:06.239Z,84.67
2018-03-08T04:19:33.775Z,85.56
2018-03-08T04:22:01.298Z,84.94
2018-03-08T04:24:28.830Z,84.56
2018-03-08T04:26:56.351Z,84.95
2018-03-08T04:29:23.881Z,84.39
2018-03-08T04:31:51.402Z,84.53
2018-03-08T04:34:18.930Z,84.55
2018-03-08T04:36:46.453Z,84.33
2018-03-08T04:39:14.005Z,84.48
2018-03-08T04:41:41.540Z,84.52
2018-03-08T04:44:09.065Z,84.54
2018-03-08T04:46:36.592Z,85.00
2018-03-08T04:49:04.112Z,84.50
2018-03-08T04:51:31.628Z,84.37
2018-03-08T04:53:59.140Z,84.95
2018-03-08T04:56:26.657Z,84.69
2018-03-08T04:58:54.177Z,84.67
2018-03-08T05:01:21.689Z,84.94
2018-03-08T05:03:49.210Z,85.14
2018-03-08T05:06:16.789Z,84.92
2018-03-08T05:08:44.312Z,85.38
2018-03-08T05:11:11.863Z,84.98
2018-03-08T05:13:39.385Z,85.41
2018-03-08T05:16:06.904Z,85.39
2018-03-08T05:18:34.442Z,85.78
2018-03-08T05:21:01.956Z,86.42
2018-03-08T05:23:29.474Z,86.51
2018-03-08T05:25:56.998Z,86.63
2018-03-08T05:28:24.525Z,87.45
2018-03-08T05:30:52.082Z,86.98
2018-03-08T05:33:19.592Z,86.85
2018-03-08T05:35:47.114Z,87.01
2018-03-08T05:38:14.631Z,86.61
2018-03-08T05:40:42.157Z,86.70
2018-03-08T05:43:09.681Z,87.22
2018-03-08T05:45:37.201Z,87.00
2018-03-08T05:48:04.721Z,86.88
2018-03-08T05:50:32.238Z,86.91
2018-03-08T05:52:59.763Z,87.19
2018-03-08T05:55:27.283Z,87.44
2018-03-08T05:57:54.797Z,87.31
2018-03-08T06:00:22.313Z,87.04
2018-03-08T06:02:49.832Z,87.30
2018-03-08T06:05:17.349Z,87.72
2018-03-08T06:07:44.863Z,87.65
2018-03-08T06:10:12.383Z,87.05
2018-03-08T06:12:39.893Z,87.06
2018-03-08T06:15:07.411Z,87.05
2018-03-08T06:17:34.929Z,86.60
2018-03-08T06:20:02.440Z,87.28
2018-03-08T06:22:29.974Z,86.84
2018-03-08T06:24:57.489Z,86.46
2018-03-08T06:27:25.018Z,86.16
2018-03-08T06:29:52.537Z,86.22
2018-03-08T06:32:20.058Z,86.27
2018-03-08T06:34:47.572Z,86.40
2018-03-08T06:37:15.122Z,86.25
2018-03-08T06:39:42.643Z,86.46
2018-03-08T06:42:10.175Z,86.11
2018-03-08T06:44:38.669Z,86.34
2018-03-08T06:47:06.347Z,86.86
2018-03-08T06:49:33.892Z,86.94
2018-03-08T06:52:01.502Z,86.54
2018-03-08T06:54:28.957Z,86.25
2018-03-08T06:56:56.474Z,86.25
2018-03-08T06:59:24.093Z,86.61
2018-03-08T07:01:51.814Z,86.80
2018-03-08T07:04:19.362Z,86.11
2018-03-08T07:06:46.882Z,85.89
2018-03-08T07:09:14.393Z,85.90
2018-03-08T07:11:41.911Z,86.22
2018-03-08T07:14:09.429Z,86.04
2018-03-08T07:16:36.946Z,86.09
2018-03-08T07:19:04.719Z,85.47
2018-03-08T07:21:32.238Z,85.46
2018-03-08T07:23:59.750Z,85.86
2018-03-08T07:26:27.293Z,85.70
2018-03-08T07:28:54.839Z,85.78
2018-03-08T07:31:22.360Z,85.66
2018-03-08T07:33:49.901Z,86.10
2018-03-08T07:36:17.440Z,86.05
2018-03-08T07:38:44.966Z,85.82
2018-03-08T07:41:12.493Z,86.05
2018-03-08T07:43:40.014Z,85.75
2018-03-08T07:46:07.546Z,86.08
2018-03-08T07:48:35.122Z,86.30
2018-03-08T07:51:02.674Z,86.06
2018-03-08T07:53:30.189Z,85.44
2018-03-08T07:55:57.712Z,85.48
2018-03-08T07:58:25.241Z,85.86
2018-03-08T08:00:52.757Z,85.88
2018-03-08T08:03:20.273Z,86.40
2018-03-08T08:05:59.708Z,86.79
2018-03-08T08:11:31.455Z,85.81
2018-03-08T08:13:58.975Z,86.36
2018-03-08T08:16:26.495Z,86.12
2018-03-08T08:18:54.006Z,85.61
2018-03-08T08:21:21.616Z,85.58
2018-03-08T08:23:49.124Z,85.96
2018-03-08T08:26:16.650Z,86.07
2018-03-08T08:28:44.298Z,86.02
2018-03-08T08:31:11.871Z,86.29
2018-03-08T08:33:39.389Z,85.84
2018-03-08T08:36:06.926Z,86.21
2018-03-08T08:38:34.435Z,86.21
2018-03-08T08:41:01.963Z,86.02
2018-03-08T08:43:29.480Z,85.48
2018-03-08T08:45:57.003Z,85.78
2018-03-08T08:48:24.580Z,85.66
2018-03-08T08:50:52.101Z,85.45
2018-03-08T08:53:19.629Z,85.36
2018-03-08T08:55:47.154Z,85.34
2018-03-08T08:58:14.676Z,85.19
2018-03-08T09:00:42.194Z,85.76
2018-03-08T09:03:09.718Z,86.46
2018-03-08T09:05:37.251Z,86.29
2018-03-08T09:08:04.770Z,86.59
2018-03-08T09:10:32.291Z,85.74
2018-03-08T09:12:59.807Z,86.00
2018-03-08T09:15:27.325Z,86.01
2018-03-08T09:17:54.834Z,85.38
2018-03-08T09:20:22.354Z,85.79
2018-03-08T09:22:49.870Z,85.87
2018-03-08T09:25:17.387Z,85.54
2018-03-08T09:27:44.924Z,85.46
2018-03-08T09:30:12.457Z,86.50
2018-03-08T09:32:39.977Z,85.58
2018-03-08T09:35:07.494Z,85.90
2018-03-08T09:37:35.010Z,85.93
2018-03-08T09:40:02.531Z,86.42
2018-03-08T09:42:30.057Z,86.09
2018-03-08T09:44:57.573Z,85.36
2018-03-08T09:47:25.095Z,84.85
2018-03-08T09:49:52.604Z,85.88
2018-03-08T09:52:20.126Z,85.23
2018-03-08T09:54:47.638Z,84.97
2018-03-08T09:57:15.154Z,84.94
2018-03-08T09:59:42.672Z,84.96
2018-03-08T10:02:11.079Z,85.29
2018-03-08T10:04:38.594Z,85.73
2018-03-08T10:07:06.110Z,85.32
2018-03-08T10:09:33.626Z,85.90
2018-03-08T10:12:01.148Z,85.66
2018-03-08T10:14:28.675Z,84.81
2018-03-08T10:16:56.195Z,85.25
2018-03-08T10:19:23.723Z,84.81
2018-03-08T10:21:51.241Z,84.76
2018-03-08T10:24:18.762Z,84.76
2018-03-08T10:26:46.280Z,84.82
2018-03-08T10:29:13.793Z,84.95
2018-03-08T10:31:41.317Z,84.33
2018-03-08T10:34:08.848Z,85.23
2018-03-08T10:36:36.366Z,85.24
2018-03-08T10:39:03.894Z,85.20
2018-03-08T10:43:58.973Z,85.51
2018-03-08T10:46:26.481Z,86.10
2018-03-08T10:51:21.560Z,85.82
2018-03-08T10:53:49.079Z,85.38
2018-03-08T10:56:16.600Z,84.72
2018-03-08T10:58:44.213Z,84.57
2018-03-08T11:01:17.381Z,84.15
2018-03-08T11:03:48.774Z,83.89
2018-03-08T11:06:20.306Z,83.99
2018-03-08T11:08:47.833Z,83.36
2018-03-08T11:11:15.343Z,82.69
2018-03-08T11:13:42.862Z,82.07
2018-03-08T11:16:10.380Z,82.52
2018-03-08T11:18:37.899Z,83.45
2018-03-08T11:21:05.413Z,82.69
2018-03-08T11:23:32.934Z,82.75
2018-03-08T11:26:00.457Z,82.43
2018-03-08T11:28:27.975Z,82.47
2018-03-08T11:30:55.480Z,81.66
2018-03-08T11:33:22.999Z,80.51
2018-03-08T11:35:50.506Z,79.28
2018-03-08T11:38:18.034Z,79.04
2018-03-08T11:40:45.555Z,78.52
2018-03-08T11:43:13.074Z,79.62
2018-03-08T11:45:40.594Z,79.77
2018-03-08T11:48:08.138Z,79.11
2018-03-08T11:50:35.653Z,79.14
2018-03-08T11:53:03.175Z,79.47
2018-03-08T11:55:30.686Z,79.28
2018-03-08T11:57:58.212Z,80.21
2018-03-08T12:00:25.733Z,80.33
2018-03-08T12:02:53.245Z,79.44
2018-03-08T12:05:20.789Z,78.48
2018-03-08T12:07:48.422Z,75.81
2018-03-08T12:10:15.941Z,75.68
2018-03-08T12:12:43.461Z,76.87
2018-03-08T12:15:10.977Z,76.47
2018-03-08T12:17:38.491Z,76.00
2018-03-08T12:20:06.009Z,76.48
2018-03-08T12:22:33.528Z,76.45
2018-03-08T12:25:01.062Z,77.54
2018-03-08T12:27:28.580Z,77.77
2018-03-08T12:29:56.105Z,77.93
2018-03-08T12:32:23.634Z,77.71
2018-03-08T12:34:51.149Z,77.95
2018-03-08T12:37:18.657Z,77.02
2018-03-08T12:39:46.172Z,77.04
2018-03-08T12:42:13.737Z,76.25
2018-03-08T12:44:41.260Z,76.31
2018-03-08T12:47:08.789Z,76.41
2018-03-08T12:49:36.297Z,76.40
2018-03-08T12:52:03.806Z,76.26
2018-03-08T12:54:31.346Z,75.39
2018-03-08T12:56:58.874Z,75.82
2018-03-08T12:59:26.386Z,74.72
2018-03-08T13:01:53.907Z,73.58
2018-03-08T13:04:21.467Z,73.86
2018-03-08T13:06:48.994Z,73.53
2018-03-08T13:09:16.510Z,73.36
2018-03-08T13:11:44.038Z,73.06
2018-03-08T13:14:11.573Z,73.58
2018-03-08T13:16:39.105Z,72.18
2018-03-08T13:19:06.622Z,72.46
2018-03-08T13:21:34.143Z,71.33
2018-03-08T13:24:01.676Z,69.66
2018-03-08T13:26:29.194Z,68.29
2018-03-08T13:28:56.720Z,67.47
2018-03-08T13:31:24.246Z,67.43
2018-03-08T13:33:51.757Z,67.19
2018-03-08T13:36:19.281Z,65.96
2018-03-08T13:38:46.826Z,66.74
2018-03-08T13:41:14.336Z,66.97
2018-03-08T13:43:41.859Z,65.85
2018-03-08T13:46:09.381Z,65.88
2018-03-08T13:48:36.913Z,64.15
2018-03-08T13:51:04.458Z,63.44
2018-03-08T13:53:31.985Z,65.29
2018-03-08T13:55:59.509Z,64.03
2018-03-08T13:58:27.029Z,64.55
2018-03-08T14:00:54.558Z,61.93
2018-03-08T14:03:22.077Z,63.01
2018-03-08T14:05:49.595Z,61.22
2018-03-08T14:08:17.106Z,62.05
2018-03-08T14:10:44.624Z,62.20
2018-03-08T14:13:12.287Z,60.54
2018-03-08T14:15:39.814Z,61.33
2018-03-08T14:18:07.332Z,62.18
2018-03-08T14:20:34.866Z,62.40
2018-03-08T14:23:02.382Z,62.14
2018-03-08T14:25:29.904Z,62.95
2018-03-08T14:27:57.438Z,61.52
2018-03-08T14:30:24.956Z,62.46
2018-03-08T14:32:52.501Z,61.69
2018-03-08T14:35:20.016Z,59.96
2018-03-08T14:37:47.536Z,59.75
2018-03-08T14:40:15.058Z,59.11
2018-03-08T14:42:42.573Z,59.66
2018-03-08T14:45:10.082Z,60.04
2018-03-08T14:47:37.606Z,57.34
2018-03-08T14:50:05.130Z,59.20
2018-03-08T14:52:32.626Z,57.22
2018-03-08T14:55:00.146Z,57.94
2018-03-08T14:57:27.674Z,56.91
2018-03-08T14:59:55.193Z,56.69
2018-03-08T15:02:22.707Z,55.50
2018-03-08T15:04:50.209Z,57.20
2018-03-08T15:07:17.726Z,56.44
2018-03-08T15:09:45.325Z,56.84
2018-03-08T15:12:12.830Z,56.21
2018-03-08T15:14:40.489Z,57.12
2018-03-08T15:17:07.992Z,57.05
2018-03-08T15:19:35.512Z,57.10
2018-03-08T15:22:03.028Z,55.38
2018-03-08T15:24:30.542Z,55.35
2018-03-08T15:26:58.085Z,56.91
2018-03-08T15:29:25.606Z,55.25
2018-03-08T15:31:53.138Z,55.45
2018-03-08T15:34:20.645Z,55.97
2018-03-08T15:36:48.154Z,56.13
2018-03-08T15:39:15.649Z,56.75
2018-03-08T15:41:43.159Z,57.71
2018-03-08T15:44:10.671Z,57.48
2018-03-08T15:46:38.178Z,55.84
2018-03-08T15:49:05.747Z,56.41
2018-03-08T15:51:33.278Z,58.06
2018-03-08T15:54:00.790Z,58.38
2018-03-08T15:56:28.296Z,57.62
2018-03-08T15:58:55.798Z,58.37
2018-03-08T16:01:23.316Z,58.23
2018-03-08T16:03:50.822Z,59.12
2018-03-08T16:09:37.301Z,59.84
2018-03-08T16:12:04.821Z,60.05
2018-03-08T16:14:32.349Z,60.67
2018-03-08T16:17:00.083Z,60.64
2018-03-08T16:19:27.599Z,61.01
2018-03-08T16:21:55.098Z,59.79
2018-03-08T16:24:22.709Z,60.78
2018-03-08T16:26:50.249Z,60.40
2018-03-08T16:29:17.784Z,61.12
2018-03-08T16:31:45.303Z,61.18
2018-03-08T16:34:12.821Z,60.63
2018-03-08T16:36:40.325Z,60.97
2018-03-08T16:39:07.830Z,61.25
2018-03-08T16:41:35.331Z,60.84
2018-03-08T16:44:02.829Z,61.14
2018-03-08T16:46:30.329Z,60.87
2018-03-08T16:48:57.829Z,61.20
2018-03-08T16:51:25.345Z,61.69
2018-03-08T16:53:52.852Z,61.85
2018-03-08T16:56:20.356Z,62.04
2018-03-08T16:58:47.856Z,62.34
2018-03-08T17:01:15.363Z,62.10
2018-03-08T17:03:42.887Z,62.04
2018-03-08T17:06:10.401Z,62.13
2018-03-08T17:08:37.901Z,61.52
2018-03-08T17:11:05.413Z,62.18
2018-03-08T17:13:32.924Z,62.75
2018-03-08T17:16:00.483Z,62.03
2018-03-08T17:18:28.237Z,62.24
2018-03-08T17:20:55.755Z,62.58
2018-03-08T17:23:23.261Z,62.05
2018-03-08T17:25:50.773Z,62.65
2018-03-08T17:28:18.313Z,62.33
2018-03-08T17:30:45.855Z,62.80
2018-03-08T17:33:13.372Z,62.45
2018-03-08T17:35:40.882Z,62.40
2018-03-08T17:38:08.395Z,62.63
2018-03-08T17:40:35.906Z,62.85
2018-03-08T17:43:03.414Z,62.99
2018-03-08T17:45:30.928Z,63.27
2018-03-08T17:47:58.438Z,63.40
2018-03-08T17:50:25.953Z,63.13
2018-03-08T17:52:53.472Z,63.61
2018-03-08T17:55:20.984Z,63.49
2018-03-08T17:57:48.517Z,63.91
2018-03-08T18:00:16.028Z,63.99
2018-03-08T18:02:43.536Z,64.48
2018-03-08T18:05:11.055Z,64.72
2018-03-08T18:07:38.567Z,65.04
2018-03-08T18:10:06.116Z,64.93
2018-03-08T18:12:33.628Z,65.13
2018-03-08T18:15:01.143Z,65.21
2018-03-08T18:17:28.659Z,64.88
2018-03-08T18:19:56.179Z,65.51
2018-03-08T18:22:23.680Z,65.44
2018-03-08T18:24:51.208Z,65.37
2018-03-08T18:27:18.729Z,65.76
2018-03-08T18:29:46.243Z,65.39
2018-03-08T18:32:13.758Z,65.34
2018-03-08T18:34:41.253Z,65.54
2018-03-08T18:37:08.761Z,65.71
2018-03-08T18:39:36.279Z,65.61
2018-03-08T18:42:03.779Z,65.61
2018-03-08T18:44:31.285Z,65.77
2018-03-08T18:46:58.780Z,65.91
2018-03-08T18:49:26.296Z,65.83
2018-03-08T18:51:53.796Z,66.00
2018-03-08T18:54:21.313Z,66.25
2018-03-08T18:56:48.838Z,66.20
2018-03-08T18:59:16.354Z,66.31
2018-03-08T19:01:43.893Z,66.27
2018-03-08T19:04:11.396Z,66.29
2018-03-08T19:06:38.912Z,66.00
2018-03-08T19:09:06.417Z,65.74
2018-03-08T19:11:33.935Z,65.54
2018-03-08T19:14:01.450Z,65.55
2018-03-08T19:16:28.959Z,65.55
2018-03-08T19:18:56.469Z,65.40
2018-03-08T19:21:23.972Z,65.31
2018-03-08T19:23:51.486Z,65.28
2018-03-08T19:26:18.992Z,65.42
2018-03-08T19:28:46.556Z,65.19
2018-03-08T19:31:14.065Z,65.16
2018-03-08T19:33:41.576Z,65.47
2018-03-08T19:36:09.076Z,64.87
2018-03-08T19:38:36.648Z,64.96
2018-03-08T19:41:04.159Z,65.27
2018-03-08T19:43:31.652Z,64.65
2018-03-08T19:45:59.186Z,64.83
2018-03-08T19:48:26.734Z,64.64
2018-03-08T19:50:54.250Z,65.16
2018-03-08T19:53:21.754Z,64.88
2018-03-08T19:55:49.283Z,65.13
2018-03-08T19:58:16.907Z,65.10
2018-03-08T20:00:44.420Z,65.13
2018-03-08T20:03:12.044Z,65.19
2018-03-08T20:05:39.579Z,65.42
2018-03-08T20:08:07.101Z,65.52
2018-03-08T20:10:34.615Z,65.19
2018-03-08T20:13:02.849Z,65.33
2018-03-08T20:15:30.364Z,65.54
2018-03-08T20:17:57.877Z,65.37
2018-03-08T20:20:25.385Z,65.47
2018-03-08T20:22:52.888Z,65.75
2018-03-08T20:25:20.416Z,65.77
2018-03-08T20:27:47.933Z,66.02
2018-03-08T20:30:16.069Z,65.74
2018-03-08T20:32:44.064Z,66.24
2018-03-08T20:35:11.707Z,65.97
2018-03-08T20:37:39.315Z,66.06
2018-03-08T20:40:06.852Z,65.89
2018-03-08T20:42:34.408Z,66.00
2018-03-08T20:45:01.958Z,66.52
2018-03-08T20:47:29.500Z,66.22
2018-03-08T20:49:57.036Z,66.14
2018-03-08T20:52:24.605Z,65.90
2018-03-08T20:54:52.158Z,65.98
2018-03-08T20:57:19.682Z,66.04
2018-03-08T20:59:47.224Z,66.07
2018-03-08T21:02:14.790Z,66.21
2018-03-08T21:04:42.344Z,65.91
2018-03-08T21:07:09.877Z,66.15
2018-03-08T21:09:37.416Z,66.06
2018-03-08T21:12:04.950Z,66.00
2018-03-08T21:14:32.496Z,66.19
2018-03-08T21:17:00.038Z,66.36
2018-03-08T21:19:27.582Z,66.59
2018-03-08T21:21:55.146Z,67.04
2018-03-08T21:24:22.694Z,67.57
2018-03-08T21:26:50.851Z,67.95
2018-03-08T21:29:20.155Z,68.67
2018-03-08T21:31:47.692Z,69.00
2018-03-08T21:34:15.230Z,69.60
2018-03-08T21:36:42.908Z,70.25
2018-03-08T21:39:11.323Z,70.48
2018-03-08T21:41:38.873Z,70.88
2018-03-08T21:44:06.431Z,72.06
2018-03-08T21:46:33.966Z,72.47
2018-03-08T21:49:01.514Z,72.05
2018-03-08T21:51:29.065Z,73.75
2018-03-08T21:53:56.611Z,74.46
2018-03-08T21:56:24.146Z,74.48
2018-03-08T21:58:51.695Z,74.26
2018-03-08T22:01:19.237Z,75.23
2018-03-08T22:03:46.782Z,75.59
2018-03-08T22:06:14.326Z,75.17
2018-03-08T22:08:41.864Z,75.51
2018-03-08T22:11:10.228Z,76.52
2018-03-08T22:13:37.767Z,77.98
2018-03-08T22:16:05.308Z,77.21
2018-03-08T22:18:33.638Z,79.00
2018-03-08T22:21:02.359Z,79.43
2018-03-08T22:23:29.920Z,77.32
2018-03-08T22:25:58.522Z,78.11
2018-03-08T22:28:26.062Z,80.14
2018-03-08T22:30:54.394Z,80.59
2018-03-08T22:33:21.940Z,80.21
2018-03-08T22:35:49.474Z,80.49
2018-03-08T22:38:17.031Z,79.57
2018-03-08T22:40:44.575Z,80.64
2018-03-08T22:43:13.030Z,83.02
2018-03-08T22:45:40.584Z,81.89
2018-03-08T22:48:08.123Z,82.90
2018-03-08T22:50:35.688Z,83.87
2018-03-08T22:53:03.976Z,87.46
2018-03-08T22:55:31.516Z,88.56
2018-03-08T22:58:03.335Z,87.64
2018-03-08T23:00:30.886Z,86.77
2018-03-08T23:03:04.114Z,86.75
2018-03-08T23:05:31.675Z,86.90
2018-03-08T23:07:59.246Z,86.47
2018-03-08T23:10:26.794Z,85.63
2018-03-08T23:12:55.286Z,84.49
2018-03-08T23:15:22.833Z,84.48
2018-03-08T23:17:50.599Z,84.14
2018-03-08T23:20:18.135Z,85.89
2018-03-08T23:22:45.687Z,84.59
2018-03-08T23:25:13.235Z,85.41
2018-03-08T23:27:40.790Z,85.43
2018-03-08T23:30:08.318Z,85.63
2018-03-08T23:32:36.045Z,86.00
2018-03-08T23:35:03.701Z,85.57
2018-03-08T23:37:32.078Z,84.29
2018-03-08T23:39:59.614Z,85.11
2018-03-08T23:42:27.729Z,85.70
2018-03-08T23:44:55.265Z,86.22
2018-03-08T23:47:22.835Z,84.21
2018-03-08T23:49:50.379Z,84.50
2018-03-08T23:52:18.648Z,84.23
2018-03-08T23:54:46.184Z,85.79
2018-03-08T23:57:13.735Z,86.29
2018-03-08T23:59:41.514Z,86.88
